Terminal Aerodrome Forecast
Issued by NWS

Current Version | Previous Version | Text Only | Print | Product List | Glossary On
Versions: 1 2 3 4 5 6 7 8 9 10 11 12 13 14 15 16 17 18 19 20 21 22 23
859
FTAK31 PAJN 300921 AAC
TAFAYA
TAF AMD
PAYA 300921Z 3009/3106 00000KT 4SM BR FEW003 FEW025
      TEMPO 3009/3013 1/2SM FG VV003
     FM301300 VRB02KT P6SM BKN008 OVC015
     FM301800 28007KT P6SM VCSH SCT008 BKN015 OVC025
      AMD LTD TO CLD VIS AND WIND 3006/3009=

USA.gov is the U.S. government's official web portal to all federal, state and local government web resources and services.